sensor_id;sensor_type;location;lat;lon;timestamp;P1;durP1;ratioP1;P2;durP2;ratioP2
49828;SDS011;35723;51.194;5.112;2024-02-23T00:01:39;4.85;;;1.20;;
49828;SDS011;35723;51.194;5.112;2024-02-23T00:04:04;6.43;;;1.50;;
49828;SDS011;35723;51.194;5.112;2024-02-23T00:06:32;4.70;;;1.38;;
49828;SDS011;35723;51.194;5.112;2024-02-23T00:08:59;6.38;;;1.35;;
49828;SDS011;35723;51.194;5.112;2024-02-23T00:11:24;5.25;;;1.33;;
49828;SDS011;35723;51.194;5.112;2024-02-23T00:13:50;7.85;;;1.10;;
49828;SDS011;35723;51.194;5.112;2024-02-23T00:16:16;6.50;;;1.00;;
49828;SDS011;35723;51.194;5.112;2024-02-23T00:29:27;3.60;;;0.73;;
49828;SDS011;35723;51.194;5.112;2024-02-23T00:31:53;6.82;;;1.10;;
49828;SDS011;35723;51.194;5.112;2024-02-23T00:34:18;12.38;;;1.48;;
49828;SDS011;35723;51.194;5.112;2024-02-23T00:36:44;8.93;;;1.20;;
49828;SDS011;35723;51.194;5.112;2024-02-23T00:39:10;7.35;;;1.30;;
49828;SDS011;35723;51.194;5.112;2024-02-23T00:41:36;9.10;;;1.10;;
49828;SDS011;35723;51.194;5.112;2024-02-23T00:44:05;7.18;;;1.20;;
49828;SDS011;35723;51.194;5.112;2024-02-23T00:46:31;7.20;;;1.15;;
49828;SDS011;35723;51.194;5.112;2024-02-23T00:54:30;10.18;;;1.60;;
49828;SDS011;35723;51.194;5.112;2024-02-23T00:56:55;5.40;;;1.05;;
49828;SDS011;35723;51.194;5.112;2024-02-23T00:59:21;8.98;;;1.50;;
49828;SDS011;35723;51.194;5.112;2024-02-23T01:01:46;8.75;;;1.38;;
49828;SDS011;35723;51.194;5.112;2024-02-23T01:04:12;8.30;;;1.30;;
49828;SDS011;35723;51.194;5.112;2024-02-23T01:06:38;9.55;;;1.67;;
49828;SDS011;35723;51.194;5.112;2024-02-23T01:09:03;7.15;;;1.30;;
49828;SDS011;35723;51.194;5.112;2024-02-23T01:11:29;8.93;;;1.58;;
49828;SDS011;35723;51.194;5.112;2024-02-23T01:13:55;9.70;;;1.50;;
49828;SDS011;35723;51.194;5.112;2024-02-23T01:16:21;7.97;;;1.30;;
49828;SDS011;35723;51.194;5.112;2024-02-23T01:18:47;7.97;;;1.30;;
49828;SDS011;35723;51.194;5.112;2024-02-23T01:21:13;12.85;;;1.60;;
49828;SDS011;35723;51.194;5.112;2024-02-23T01:23:39;7.65;;;1.45;;
49828;SDS011;35723;51.194;5.112;2024-02-23T01:26:04;10.25;;;1.83;;
49828;SDS011;35723;51.194;5.112;2024-02-23T01:28:30;8.25;;;1.50;;
49828;SDS011;35723;51.194;5.112;2024-02-23T01:30:55;7.53;;;1.50;;
49828;SDS011;35723;51.194;5.112;2024-02-23T01:33:21;8.10;;;1.42;;
49828;SDS011;35723;51.194;5.112;2024-02-23T01:35:47;7.40;;;1.52;;
49828;SDS011;35723;51.194;5.112;2024-02-23T01:38:12;6.57;;;1.27;;
49828;SDS011;35723;51.194;5.112;2024-02-23T01:40:44;7.82;;;1.45;;
49828;SDS011;35723;51.194;5.112;2024-02-23T01:43:09;9.52;;;1.15;;
49828;SDS011;35723;51.194;5.112;2024-02-23T01:45:35;7.55;;;1.30;;
49828;SDS011;35723;51.194;5.112;2024-02-23T01:48:01;8.75;;;1.15;;
49828;SDS011;35723;51.194;5.112;2024-02-23T01:50:27;4.03;;;0.70;;
49828;SDS011;35723;51.194;5.112;2024-02-23T01:52:55;7.50;;;1.00;;
49828;SDS011;35723;51.194;5.112;2024-02-23T01:55:24;10.50;;;1.45;;
49828;SDS011;35723;51.194;5.112;2024-02-23T01:57:49;7.03;;;1.38;;
49828;SDS011;35723;51.194;5.112;2024-02-23T02:00:16;7.38;;;1.45;;
49828;SDS011;35723;51.194;5.112;2024-02-23T02:02:43;6.90;;;1.30;;
49828;SDS011;35723;51.194;5.112;2024-02-23T02:05:10;9.90;;;1.40;;
49828;SDS011;35723;51.194;5.112;2024-02-23T02:07:36;7.85;;;1.42;;
49828;SDS011;35723;51.194;5.112;2024-02-23T02:10:02;7.40;;;1.30;;
49828;SDS011;35723;51.194;5.112;2024-02-23T02:12:31;3.72;;;1.10;;
49828;SDS011;35723;51.194;5.112;2024-02-23T02:14:57;10.80;;;1.70;;
49828;SDS011;35723;51.194;5.112;2024-02-23T02:17:24;5.50;;;0.93;;
49828;SDS011;35723;51.194;5.112;2024-02-23T02:19:49;8.27;;;1.33;;
49828;SDS011;35723;51.194;5.112;2024-02-23T02:22:15;5.95;;;1.08;;
49828;SDS011;35723;51.194;5.112;2024-02-23T02:24:41;5.70;;;0.88;;
49828;SDS011;35723;51.194;5.112;2024-02-23T02:27:09;6.18;;;1.02;;
49828;SDS011;35723;51.194;5.112;2024-02-23T02:29:37;11.25;;;2.20;;
49828;SDS011;35723;51.194;5.112;2024-02-23T02:32:03;6.20;;;1.45;;
49828;SDS011;35723;51.194;5.112;2024-02-23T02:34:29;6.20;;;1.10;;
49828;SDS011;35723;51.194;5.112;2024-02-23T02:36:55;9.13;;;1.67;;
49828;SDS011;35723;51.194;5.112;2024-02-23T02:39:21;7.53;;;1.20;;
49828;SDS011;35723;51.194;5.112;2024-02-23T02:41:49;9.07;;;1.40;;
49828;SDS011;35723;51.194;5.112;2024-02-23T02:44:15;9.60;;;1.50;;
49828;SDS011;35723;51.194;5.112;2024-02-23T02:46:41;11.07;;;1.75;;
49828;SDS011;35723;51.194;5.112;2024-02-23T02:49:07;5.95;;;1.20;;
49828;SDS011;35723;51.194;5.112;2024-02-23T02:51:33;7.32;;;1.30;;
49828;SDS011;35723;51.194;5.112;2024-02-23T02:53:58;11.52;;;1.63;;
49828;SDS011;35723;51.194;5.112;2024-02-23T02:56:24;8.57;;;1.60;;
49828;SDS011;35723;51.194;5.112;2024-02-23T02:58:50;10.32;;;1.60;;
49828;SDS011;35723;51.194;5.112;2024-02-23T03:01:15;5.95;;;1.45;;
49828;SDS011;35723;51.194;5.112;2024-02-23T03:03:41;7.60;;;1.73;;
49828;SDS011;35723;51.194;5.112;2024-02-23T03:06:07;6.90;;;1.60;;
49828;SDS011;35723;51.194;5.112;2024-02-23T03:08:33;11.40;;;1.70;;
49828;SDS011;35723;51.194;5.112;2024-02-23T03:10:58;10.38;;;1.80;;
49828;SDS011;35723;51.194;5.112;2024-02-23T03:13:24;11.98;;;2.42;;
49828;SDS011;35723;51.194;5.112;2024-02-23T03:15:50;13.45;;;2.28;;
49828;SDS011;35723;51.194;5.112;2024-02-23T03:18:15;10.50;;;2.15;;
49828;SDS011;35723;51.194;5.112;2024-02-23T03:20:41;13.43;;;2.80;;
49828;SDS011;35723;51.194;5.112;2024-02-23T03:23:07;11.82;;;2.25;;
49828;SDS011;35723;51.194;5.112;2024-02-23T03:25:33;9.52;;;2.13;;
49828;SDS011;35723;51.194;5.112;2024-02-23T03:27:58;14.77;;;2.50;;
49828;SDS011;35723;51.194;5.112;2024-02-23T03:30:24;14.02;;;2.45;;
49828;SDS011;35723;51.194;5.112;2024-02-23T03:32:49;13.52;;;2.20;;
49828;SDS011;35723;51.194;5.112;2024-02-23T03:35:15;9.32;;;2.15;;
49828;SDS011;35723;51.194;5.112;2024-02-23T03:37:41;9.80;;;2.08;;
49828;SDS011;35723;51.194;5.112;2024-02-23T03:40:07;10.40;;;1.98;;
49828;SDS011;35723;51.194;5.112;2024-02-23T03:42:33;15.25;;;2.40;;
49828;SDS011;35723;51.194;5.112;2024-02-23T03:44:59;16.80;;;2.40;;
49828;SDS011;35723;51.194;5.112;2024-02-23T03:47:25;13.38;;;2.20;;
49828;SDS011;35723;51.194;5.112;2024-02-23T03:49:51;12.45;;;2.40;;
49828;SDS011;35723;51.194;5.112;2024-02-23T03:52:16;12.98;;;2.58;;
49828;SDS011;35723;51.194;5.112;2024-02-23T03:54:42;11.20;;;2.00;;
49828;SDS011;35723;51.194;5.112;2024-02-23T03:57:08;16.00;;;2.45;;
49828;SDS011;35723;51.194;5.112;2024-02-23T03:59:35;13.07;;;2.42;;
49828;SDS011;35723;51.194;5.112;2024-02-23T04:02:02;16.70;;;2.35;;
49828;SDS011;35723;51.194;5.112;2024-02-23T04:04:28;10.82;;;2.05;;
49828;SDS011;35723;51.194;5.112;2024-02-23T04:06:53;13.68;;;2.00;;
49828;SDS011;35723;51.194;5.112;2024-02-23T04:09:19;9.57;;;2.10;;
49828;SDS011;35723;51.194;5.112;2024-02-23T04:11:47;13.73;;;2.38;;
49828;SDS011;35723;51.194;5.112;2024-02-23T04:14:13;8.77;;;1.92;;
49828;SDS011;35723;51.194;5.112;2024-02-23T04:16:39;16.38;;;2.60;;
49828;SDS011;35723;51.194;5.112;2024-02-23T04:19:04;12.52;;;2.22;;
49828;SDS011;35723;51.194;5.112;2024-02-23T04:21:30;9.70;;;1.80;;
49828;SDS011;35723;51.194;5.112;2024-02-23T04:23:56;11.75;;;2.10;;
49828;SDS011;35723;51.194;5.112;2024-02-23T04:26:21;11.02;;;2.00;;
49828;SDS011;35723;51.194;5.112;2024-02-23T04:28:47;11.18;;;1.95;;
49828;SDS011;35723;51.194;5.112;2024-02-23T04:31:13;14.18;;;2.50;;
49828;SDS011;35723;51.194;5.112;2024-02-23T04:33:38;13.10;;;2.08;;
49828;SDS011;35723;51.194;5.112;2024-02-23T04:36:04;9.00;;;1.85;;
49828;SDS011;35723;51.194;5.112;2024-02-23T04:38:31;13.48;;;1.98;;
49828;SDS011;35723;51.194;5.112;2024-02-23T04:41:02;11.95;;;1.85;;
49828;SDS011;35723;51.194;5.112;2024-02-23T04:43:29;13.38;;;2.00;;
49828;SDS011;35723;51.194;5.112;2024-02-23T04:45:55;13.50;;;2.05;;
49828;SDS011;35723;51.194;5.112;2024-02-23T04:48:20;10.38;;;1.80;;
49828;SDS011;35723;51.194;5.112;2024-02-23T04:50:46;11.48;;;1.60;;
49828;SDS011;35723;51.194;5.112;2024-02-23T04:53:11;9.63;;;1.70;;
49828;SDS011;35723;51.194;5.112;2024-02-23T04:55:37;13.10;;;1.90;;
49828;SDS011;35723;51.194;5.112;2024-02-23T04:58:03;8.75;;;1.58;;
49828;SDS011;35723;51.194;5.112;2024-02-23T05:00:28;13.82;;;1.85;;
49828;SDS011;35723;51.194;5.112;2024-02-23T05:02:58;16.05;;;1.98;;
49828;SDS011;35723;51.194;5.112;2024-02-23T05:05:31;11.13;;;2.05;;
49828;SDS011;35723;51.194;5.112;2024-02-23T05:07:57;8.98;;;1.88;;
49828;SDS011;35723;51.194;5.112;2024-02-23T05:10:23;11.73;;;2.08;;
49828;SDS011;35723;51.194;5.112;2024-02-23T05:12:49;11.98;;;1.95;;
49828;SDS011;35723;51.194;5.112;2024-02-23T05:15:15;16.70;;;2.03;;
49828;SDS011;35723;51.194;5.112;2024-02-23T05:17:41;7.63;;;1.40;;
49828;SDS011;35723;51.194;5.112;2024-02-23T05:20:07;8.45;;;1.85;;
49828;SDS011;35723;51.194;5.112;2024-02-23T05:22:35;9.55;;;1.70;;
49828;SDS011;35723;51.194;5.112;2024-02-23T05:25:01;12.77;;;1.65;;
49828;SDS011;35723;51.194;5.112;2024-02-23T05:27:27;11.07;;;2.40;;
49828;SDS011;35723;51.194;5.112;2024-02-23T05:29:53;15.95;;;1.85;;
49828;SDS011;35723;51.194;5.112;2024-02-23T05:32:18;13.48;;;1.73;;
49828;SDS011;35723;51.194;5.112;2024-02-23T05:34:44;12.93;;;1.80;;
49828;SDS011;35723;51.194;5.112;2024-02-23T05:37:10;13.88;;;1.83;;
49828;SDS011;35723;51.194;5.112;2024-02-23T05:39:36;12.93;;;1.63;;
49828;SDS011;35723;51.194;5.112;2024-02-23T05:42:03;12.93;;;2.08;;
49828;SDS011;35723;51.194;5.112;2024-02-23T05:44:29;11.60;;;1.70;;
49828;SDS011;35723;51.194;5.112;2024-02-23T05:46:54;14.23;;;2.55;;
49828;SDS011;35723;51.194;5.112;2024-02-23T05:49:20;9.63;;;1.70;;
49828;SDS011;35723;51.194;5.112;2024-02-23T05:51:46;17.73;;;2.30;;
49828;SDS011;35723;51.194;5.112;2024-02-23T05:54:11;9.55;;;1.98;;
49828;SDS011;35723;51.194;5.112;2024-02-23T05:56:37;14.68;;;2.08;;
49828;SDS011;35723;51.194;5.112;2024-02-23T05:59:03;12.75;;;1.90;;
49828;SDS011;35723;51.194;5.112;2024-02-23T06:01:28;12.57;;;2.17;;
49828;SDS011;35723;51.194;5.112;2024-02-23T06:03:54;14.95;;;2.40;;
49828;SDS011;35723;51.194;5.112;2024-02-23T06:06:20;14.32;;;2.03;;
49828;SDS011;35723;51.194;5.112;2024-02-23T06:08:46;13.77;;;2.13;;
49828;SDS011;35723;51.194;5.112;2024-02-23T06:11:11;15.90;;;2.17;;
49828;SDS011;35723;51.194;5.112;2024-02-23T06:13:37;10.43;;;1.90;;
49828;SDS011;35723;51.194;5.112;2024-02-23T06:16:04;11.50;;;2.10;;
49828;SDS011;35723;51.194;5.112;2024-02-23T06:18:30;11.38;;;2.40;;
49828;SDS011;35723;51.194;5.112;2024-02-23T06:20:56;16.92;;;2.97;;
49828;SDS011;35723;51.194;5.112;2024-02-23T06:23:21;11.02;;;1.88;;
49828;SDS011;35723;51.194;5.112;2024-02-23T06:25:47;9.82;;;1.90;;
49828;SDS011;35723;51.194;5.112;2024-02-23T06:28:13;11.05;;;2.00;;
49828;SDS011;35723;51.194;5.112;2024-02-23T06:30:38;12.07;;;1.80;;
49828;SDS011;35723;51.194;5.112;2024-02-23T06:33:05;14.75;;;2.42;;
49828;SDS011;35723;51.194;5.112;2024-02-23T06:35:31;12.30;;;2.20;;
49828;SDS011;35723;51.194;5.112;2024-02-23T06:37:57;14.10;;;2.30;;
49828;SDS011;35723;51.194;5.112;2024-02-23T06:40:23;14.30;;;2.03;;
49828;SDS011;35723;51.194;5.112;2024-02-23T06:42:48;8.80;;;1.73;;
49828;SDS011;35723;51.194;5.112;2024-02-23T06:45:15;9.38;;;1.65;;
49828;SDS011;35723;51.194;5.112;2024-02-23T06:47:41;11.60;;;1.95;;
49828;SDS011;35723;51.194;5.112;2024-02-23T06:50:07;15.65;;;2.15;;
49828;SDS011;35723;51.194;5.112;2024-02-23T06:52:33;13.50;;;2.30;;
49828;SDS011;35723;51.194;5.112;2024-02-23T06:55:00;11.65;;;2.20;;
49828;SDS011;35723;51.194;5.112;2024-02-23T06:57:26;12.15;;;1.98;;
49828;SDS011;35723;51.194;5.112;2024-02-23T06:59:52;11.55;;;1.80;;
49828;SDS011;35723;51.194;5.112;2024-02-23T07:02:18;15.20;;;2.17;;
49828;SDS011;35723;51.194;5.112;2024-02-23T07:04:43;15.50;;;2.22;;
49828;SDS011;35723;51.194;5.112;2024-02-23T07:07:09;16.13;;;1.83;;
49828;SDS011;35723;51.194;5.112;2024-02-23T07:09:36;20.88;;;2.15;;
49828;SDS011;35723;51.194;5.112;2024-02-23T07:12:02;14.70;;;2.13;;
49828;SDS011;35723;51.194;5.112;2024-02-23T07:14:28;14.27;;;2.00;;
49828;SDS011;35723;51.194;5.112;2024-02-23T07:16:53;13.98;;;2.40;;
49828;SDS011;35723;51.194;5.112;2024-02-23T07:19:19;14.20;;;2.58;;
49828;SDS011;35723;51.194;5.112;2024-02-23T07:21:45;18.90;;;2.20;;
49828;SDS011;35723;51.194;5.112;2024-02-23T07:24:11;9.73;;;1.80;;
49828;SDS011;35723;51.194;5.112;2024-02-23T07:26:38;13.95;;;2.10;;
49828;SDS011;35723;51.194;5.112;2024-02-23T07:29:04;9.77;;;2.10;;
49828;SDS011;35723;51.194;5.112;2024-02-23T07:31:30;12.27;;;2.05;;
49828;SDS011;35723;51.194;5.112;2024-02-23T07:33:59;15.93;;;2.08;;
49828;SDS011;35723;51.194;5.112;2024-02-23T07:36:25;12.52;;;1.83;;
49828;SDS011;35723;51.194;5.112;2024-02-23T07:38:51;13.77;;;1.98;;
49828;SDS011;35723;51.194;5.112;2024-02-23T07:41:16;14.02;;;1.90;;
49828;SDS011;35723;51.194;5.112;2024-02-23T07:43:45;15.93;;;1.60;;
49828;SDS011;35723;51.194;5.112;2024-02-23T07:46:11;9.10;;;1.83;;
49828;SDS011;35723;51.194;5.112;2024-02-23T07:48:37;14.85;;;2.10;;
49828;SDS011;35723;51.194;5.112;2024-02-23T07:51:03;13.65;;;1.75;;
49828;SDS011;35723;51.194;5.112;2024-02-23T07:53:30;12.23;;;1.73;;
49828;SDS011;35723;51.194;5.112;2024-02-23T07:55:56;17.15;;;2.00;;
49828;SDS011;35723;51.194;5.112;2024-02-23T07:58:24;10.63;;;1.77;;
49828;SDS011;35723;51.194;5.112;2024-02-23T08:00:51;14.02;;;1.90;;
49828;SDS011;35723;51.194;5.112;2024-02-23T08:03:18;9.82;;;1.90;;
49828;SDS011;35723;51.194;5.112;2024-02-23T08:05:44;18.58;;;2.30;;
49828;SDS011;35723;51.194;5.112;2024-02-23T08:08:09;16.10;;;1.85;;
49828;SDS011;35723;51.194;5.112;2024-02-23T08:10:35;13.73;;;2.30;;
49828;SDS011;35723;51.194;5.112;2024-02-23T08:13:00;12.07;;;1.77;;
49828;SDS011;35723;51.194;5.112;2024-02-23T08:15:26;11.52;;;1.70;;
49828;SDS011;35723;51.194;5.112;2024-02-23T08:17:52;19.17;;;2.05;;
49828;SDS011;35723;51.194;5.112;2024-02-23T08:20:18;16.83;;;2.50;;
49828;SDS011;35723;51.194;5.112;2024-02-23T08:22:44;13.75;;;2.10;;
49828;SDS011;35723;51.194;5.112;2024-02-23T08:25:10;9.10;;;1.90;;
49828;SDS011;35723;51.194;5.112;2024-02-23T08:27:35;10.27;;;1.73;;
49828;SDS011;35723;51.194;5.112;2024-02-23T08:30:01;11.68;;;1.98;;
49828;SDS011;35723;51.194;5.112;2024-02-23T08:32:27;13.63;;;1.73;;
49828;SDS011;35723;51.194;5.112;2024-02-23T08:34:52;13.43;;;2.28;;
49828;SDS011;35723;51.194;5.112;2024-02-23T08:37:24;17.63;;;2.38;;
49828;SDS011;35723;51.194;5.112;2024-02-23T08:39:50;17.00;;;2.40;;
49828;SDS011;35723;51.194;5.112;2024-02-23T08:42:16;18.73;;;2.03;;
49828;SDS011;35723;51.194;5.112;2024-02-23T08:44:41;18.70;;;2.22;;
49828;SDS011;35723;51.194;5.112;2024-02-23T08:47:07;10.18;;;1.70;;
49828;SDS011;35723;51.194;5.112;2024-02-23T08:49:33;13.68;;;1.85;;
49828;SDS011;35723;51.194;5.112;2024-02-23T08:51:58;13.20;;;2.17;;
49828;SDS011;35723;51.194;5.112;2024-02-23T08:54:24;17.65;;;2.10;;
49828;SDS011;35723;51.194;5.112;2024-02-23T08:56:50;18.55;;;2.22;;
49828;SDS011;35723;51.194;5.112;2024-02-23T08:59:15;10.40;;;2.05;;
49828;SDS011;35723;51.194;5.112;2024-02-23T09:01:41;14.05;;;2.08;;
49828;SDS011;35723;51.194;5.112;2024-02-23T09:04:07;9.93;;;2.08;;
49828;SDS011;35723;51.194;5.112;2024-02-23T09:06:32;20.88;;;2.45;;
49828;SDS011;35723;51.194;5.112;2024-02-23T09:08:58;14.63;;;2.05;;
49828;SDS011;35723;51.194;5.112;2024-02-23T09:11:24;14.40;;;1.95;;
49828;SDS011;35723;51.194;5.112;2024-02-23T09:13:49;12.55;;;2.00;;
49828;SDS011;35723;51.194;5.112;2024-02-23T09:16:15;13.63;;;2.08;;
49828;SDS011;35723;51.194;5.112;2024-02-23T09:18:41;11.32;;;1.70;;
49828;SDS011;35723;51.194;5.112;2024-02-23T09:21:06;15.45;;;1.60;;
49828;SDS011;35723;51.194;5.112;2024-02-23T09:23:32;8.63;;;1.73;;
49828;SDS011;35723;51.194;5.112;2024-02-23T09:25:58;10.73;;;1.95;;
49828;SDS011;35723;51.194;5.112;2024-02-23T09:28:24;7.95;;;1.75;;
49828;SDS011;35723;51.194;5.112;2024-02-23T09:30:50;8.65;;;1.80;;
49828;SDS011;35723;51.194;5.112;2024-02-23T09:33:15;10.93;;;1.67;;
49828;SDS011;35723;51.194;5.112;2024-02-23T09:35:41;13.10;;;2.03;;
49828;SDS011;35723;51.194;5.112;2024-02-23T09:38:06;7.72;;;1.70;;
49828;SDS011;35723;51.194;5.112;2024-02-23T09:40:32;10.07;;;1.73;;
49828;SDS011;35723;51.194;5.112;2024-02-23T09:42:58;9.85;;;1.75;;
49828;SDS011;35723;51.194;5.112;2024-02-23T09:45:24;10.05;;;1.85;;
49828;SDS011;35723;51.194;5.112;2024-02-23T09:47:52;7.93;;;1.90;;
49828;SDS011;35723;51.194;5.112;2024-02-23T09:50:19;8.75;;;1.80;;
49828;SDS011;35723;51.194;5.112;2024-02-23T09:52:47;10.43;;;1.67;;
49828;SDS011;35723;51.194;5.112;2024-02-23T09:55:15;11.23;;;1.85;;
49828;SDS011;35723;51.194;5.112;2024-02-23T09:57:42;12.18;;;2.28;;
49828;SDS011;35723;51.194;5.112;2024-02-23T10:00:08;18.02;;;2.08;;
49828;SDS011;35723;51.194;5.112;2024-02-23T10:02:34;13.45;;;2.33;;
49828;SDS011;35723;51.194;5.112;2024-02-23T10:05:01;10.57;;;1.77;;
49828;SDS011;35723;51.194;5.112;2024-02-23T10:07:28;12.68;;;1.75;;
49828;SDS011;35723;51.194;5.112;2024-02-23T10:09:53;12.35;;;1.88;;
49828;SDS011;35723;51.194;5.112;2024-02-23T10:12:20;10.07;;;2.17;;
49828;SDS011;35723;51.194;5.112;2024-02-23T10:14:46;9.20;;;2.13;;
49828;SDS011;35723;51.194;5.112;2024-02-23T10:17:11;11.05;;;1.85;;
49828;SDS011;35723;51.194;5.112;2024-02-23T10:19:37;11.55;;;1.75;;
49828;SDS011;35723;51.194;5.112;2024-02-23T10:22:03;17.75;;;2.35;;
49828;SDS011;35723;51.194;5.112;2024-02-23T10:24:29;13.30;;;2.10;;
49828;SDS011;35723;51.194;5.112;2024-02-23T10:26:55;16.27;;;2.15;;
49828;SDS011;35723;51.194;5.112;2024-02-23T10:29:20;10.48;;;2.00;;
49828;SDS011;35723;51.194;5.112;2024-02-23T10:31:46;9.23;;;1.70;;
49828;SDS011;35723;51.194;5.112;2024-02-23T10:34:14;10.93;;;1.60;;
49828;SDS011;35723;51.194;5.112;2024-02-23T10:36:43;11.38;;;2.40;;
49828;SDS011;35723;51.194;5.112;2024-02-23T10:39:10;13.63;;;1.98;;
49828;SDS011;35723;51.194;5.112;2024-02-23T10:41:41;13.45;;;1.90;;
49828;SDS011;35723;51.194;5.112;2024-02-23T10:44:20;11.18;;;1.92;;
49828;SDS011;35723;51.194;5.112;2024-02-23T10:46:46;8.90;;;1.75;;
49828;SDS011;35723;51.194;5.112;2024-02-23T10:49:14;13.82;;;2.05;;
49828;SDS011;35723;51.194;5.112;2024-02-23T10:51:41;9.57;;;1.75;;
49828;SDS011;35723;51.194;5.112;2024-02-23T10:54:08;13.68;;;1.83;;
49828;SDS011;35723;51.194;5.112;2024-02-23T10:56:34;10.65;;;1.70;;
49828;SDS011;35723;51.194;5.112;2024-02-23T10:59:00;8.45;;;1.83;;
49828;SDS011;35723;51.194;5.112;2024-02-23T11:01:26;14.43;;;1.80;;
49828;SDS011;35723;51.194;5.112;2024-02-23T11:03:52;9.02;;;1.63;;
49828;SDS011;35723;51.194;5.112;2024-02-23T11:06:19;8.13;;;1.55;;
49828;SDS011;35723;51.194;5.112;2024-02-23T11:08:46;9.43;;;1.30;;
49828;SDS011;35723;51.194;5.112;2024-02-23T11:11:16;8.35;;;1.55;;
49828;SDS011;35723;51.194;5.112;2024-02-23T11:13:45;11.18;;;1.77;;
49828;SDS011;35723;51.194;5.112;2024-02-23T11:16:21;10.30;;;1.40;;
49828;SDS011;35723;51.194;5.112;2024-02-23T11:18:48;11.52;;;1.77;;
49828;SDS011;35723;51.194;5.112;2024-02-23T11:21:14;5.20;;;1.20;;
49828;SDS011;35723;51.194;5.112;2024-02-23T11:23:43;9.93;;;1.77;;
49828;SDS011;35723;51.194;5.112;2024-02-23T11:26:11;7.40;;;1.35;;
49828;SDS011;35723;51.194;5.112;2024-02-23T11:28:50;6.15;;;1.50;;
49828;SDS011;35723;51.194;5.112;2024-02-23T11:31:25;7.88;;;1.63;;
49828;SDS011;35723;51.194;5.112;2024-02-23T11:33:54;4.72;;;1.25;;
49828;SDS011;35723;51.194;5.112;2024-02-23T11:36:25;9.63;;;1.63;;
49828;SDS011;35723;51.194;5.112;2024-02-23T11:38:58;10.13;;;1.42;;
49828;SDS011;35723;51.194;5.112;2024-02-23T11:41:25;6.78;;;1.50;;
49828;SDS011;35723;51.194;5.112;2024-02-23T11:43:53;10.15;;;1.60;;
49828;SDS011;35723;51.194;5.112;2024-02-23T11:46:20;12.65;;;1.88;;
49828;SDS011;35723;51.194;5.112;2024-02-23T11:48:47;9.82;;;1.63;;
49828;SDS011;35723;51.194;5.112;2024-02-23T11:51:18;13.35;;;2.22;;
49828;SDS011;35723;51.194;5.112;2024-02-23T11:53:44;13.23;;;2.10;;
49828;SDS011;35723;51.194;5.112;2024-02-23T11:56:11;10.25;;;1.65;;
49828;SDS011;35723;51.194;5.112;2024-02-23T11:58:36;6.75;;;1.80;;
49828;SDS011;35723;51.194;5.112;2024-02-23T12:01:02;7.55;;;1.90;;
49828;SDS011;35723;51.194;5.112;2024-02-23T12:03:29;8.32;;;1.48;;
49828;SDS011;35723;51.194;5.112;2024-02-23T12:05:57;6.35;;;1.42;;
49828;SDS011;35723;51.194;5.112;2024-02-23T12:08:24;10.18;;;1.70;;
49828;SDS011;35723;51.194;5.112;2024-02-23T12:10:54;14.18;;;1.85;;
49828;SDS011;35723;51.194;5.112;2024-02-23T12:13:20;11.02;;;1.80;;
49828;SDS011;35723;51.194;5.112;2024-02-23T12:15:47;12.23;;;2.00;;
49828;SDS011;35723;51.194;5.112;2024-02-23T12:18:13;13.02;;;2.10;;
49828;SDS011;35723;51.194;5.112;2024-02-23T12:20:39;9.95;;;1.60;;
49828;SDS011;35723;51.194;5.112;2024-02-23T12:23:05;14.65;;;2.22;;
49828;SDS011;35723;51.194;5.112;2024-02-23T12:25:32;12.80;;;1.77;;
49828;SDS011;35723;51.194;5.112;2024-02-23T12:27:59;13.20;;;1.95;;
49828;SDS011;35723;51.194;5.112;2024-02-23T12:30:25;12.60;;;2.13;;
49828;SDS011;35723;51.194;5.112;2024-02-23T12:33:02;9.30;;;1.85;;
49828;SDS011;35723;51.194;5.112;2024-02-23T12:35:32;10.50;;;1.58;;
49828;SDS011;35723;51.194;5.112;2024-02-23T12:37:59;8.10;;;1.55;;
49828;SDS011;35723;51.194;5.112;2024-02-23T12:40:24;10.68;;;1.70;;
49828;SDS011;35723;51.194;5.112;2024-02-23T12:42:50;8.43;;;1.70;;
49828;SDS011;35723;51.194;5.112;2024-02-23T12:45:16;8.65;;;1.80;;
49828;SDS011;35723;51.194;5.112;2024-02-23T12:47:41;11.75;;;1.92;;
49828;SDS011;35723;51.194;5.112;2024-02-23T12:50:07;7.43;;;1.60;;
49828;SDS011;35723;51.194;5.112;2024-02-23T12:52:33;7.40;;;1.63;;
49828;SDS011;35723;51.194;5.112;2024-02-23T12:54:59;11.75;;;1.80;;
49828;SDS011;35723;51.194;5.112;2024-02-23T12:57:25;7.28;;;1.60;;
49828;SDS011;35723;51.194;5.112;2024-02-23T12:59:51;7.78;;;1.60;;
49828;SDS011;35723;51.194;5.112;2024-02-23T13:02:16;13.40;;;1.83;;
49828;SDS011;35723;51.194;5.112;2024-02-23T13:04:42;8.40;;;1.80;;
49828;SDS011;35723;51.194;5.112;2024-02-23T13:07:13;9.07;;;2.00;;
49828;SDS011;35723;51.194;5.112;2024-02-23T13:09:39;11.93;;;2.08;;
49828;SDS011;35723;51.194;5.112;2024-02-23T13:12:05;10.90;;;2.08;;
49828;SDS011;35723;51.194;5.112;2024-02-23T13:14:30;6.80;;;1.42;;
49828;SDS011;35723;51.194;5.112;2024-02-23T13:16:56;10.77;;;1.58;;
49828;SDS011;35723;51.194;5.112;2024-02-23T13:19:22;8.82;;;1.60;;
49828;SDS011;35723;51.194;5.112;2024-02-23T13:21:47;6.70;;;1.40;;
49828;SDS011;35723;51.194;5.112;2024-02-23T13:24:13;18.58;;;2.10;;
49828;SDS011;35723;51.194;5.112;2024-02-23T13:26:39;6.68;;;1.25;;
49828;SDS011;35723;51.194;5.112;2024-02-23T13:29:04;10.93;;;1.60;;
49828;SDS011;35723;51.194;5.112;2024-02-23T13:31:30;9.68;;;1.50;;
49828;SDS011;35723;51.194;5.112;2024-02-23T13:33:55;6.57;;;1.40;;
49828;SDS011;35723;51.194;5.112;2024-02-23T13:36:21;14.43;;;1.83;;
49828;SDS011;35723;51.194;5.112;2024-02-23T13:38:47;9.88;;;1.58;;
49828;SDS011;35723;51.194;5.112;2024-02-23T13:41:12;12.00;;;1.65;;
49828;SDS011;35723;51.194;5.112;2024-02-23T13:43:38;9.40;;;1.52;;
49828;SDS011;35723;51.194;5.112;2024-02-23T13:46:04;10.27;;;1.38;;
49828;SDS011;35723;51.194;5.112;2024-02-23T13:48:29;8.40;;;1.50;;
49828;SDS011;35723;51.194;5.112;2024-02-23T13:50:55;7.85;;;1.60;;
49828;SDS011;35723;51.194;5.112;2024-02-23T13:53:22;6.80;;;1.30;;
49828;SDS011;35723;51.194;5.112;2024-02-23T13:55:47;8.82;;;1.45;;
49828;SDS011;35723;51.194;5.112;2024-02-23T13:58:13;7.63;;;1.30;;
49828;SDS011;35723;51.194;5.112;2024-02-23T14:00:38;7.38;;;1.60;;
49828;SDS011;35723;51.194;5.112;2024-02-23T14:03:04;10.30;;;1.50;;
49828;SDS011;35723;51.194;5.112;2024-02-23T14:05:30;7.53;;;1.17;;
49828;SDS011;35723;51.194;5.112;2024-02-23T14:07:55;9.63;;;1.38;;
49828;SDS011;35723;51.194;5.112;2024-02-23T14:10:21;6.80;;;1.50;;
49828;SDS011;35723;51.194;5.112;2024-02-23T14:12:47;11.30;;;1.67;;
49828;SDS011;35723;51.194;5.112;2024-02-23T14:15:15;10.77;;;1.48;;
49828;SDS011;35723;51.194;5.112;2024-02-23T14:17:42;7.88;;;1.45;;
49828;SDS011;35723;51.194;5.112;2024-02-23T14:20:08;11.07;;;1.67;;
49828;SDS011;35723;51.194;5.112;2024-02-23T14:22:34;7.82;;;1.63;;
49828;SDS011;35723;51.194;5.112;2024-02-23T14:24:59;9.93;;;1.75;;
49828;SDS011;35723;51.194;5.112;2024-02-23T14:27:25;14.48;;;1.63;;
49828;SDS011;35723;51.194;5.112;2024-02-23T14:29:53;6.53;;;1.50;;
49828;SDS011;35723;51.194;5.112;2024-02-23T14:32:18;11.25;;;1.60;;
49828;SDS011;35723;51.194;5.112;2024-02-23T14:34:44;12.30;;;1.73;;
49828;SDS011;35723;51.194;5.112;2024-02-23T14:37:10;6.65;;;1.20;;
49828;SDS011;35723;51.194;5.112;2024-02-23T14:39:36;7.97;;;1.20;;
49828;SDS011;35723;51.194;5.112;2024-02-23T14:42:02;8.05;;;1.52;;
49828;SDS011;35723;51.194;5.112;2024-02-23T14:44:28;6.38;;;1.48;;
49828;SDS011;35723;51.194;5.112;2024-02-23T14:46:54;6.80;;;1.42;;
49828;SDS011;35723;51.194;5.112;2024-02-23T14:49:19;7.78;;;1.80;;
49828;SDS011;35723;51.194;5.112;2024-02-23T14:51:45;7.90;;;1.50;;